Time;durP1;ratioP1;P1;durP2;ratioP2;P2;SDS_P1;SDS_P2;PMS_P1;PMS_P2;Temp;Humidity;BMP_temperature;BMP_pressure;BME280_temperature;BME280_humidity;BME280_pressure;Samples;Min_cycle;Max_cycle;Signal;HPM_P1;HPM_P2
2023/05/16 00:00:24;;;;;;;16.33;10.30;;;11.10;99.90;;;;;;5013697;28;20426;-74
2023/05/16 00:02:53;;;;;;;14.33;11.27;;;11.00;99.90;;;;;;5013283;28;20519;-73
2023/05/16 00:05:18;;;;;;;11.73;10.20;;;11.00;99.90;;;;;;5013627;28;20426;-74
2023/05/16 00:07:46;;;;;;;13.20;11.73;;;11.00;99.90;;;;;;5013737;28;20471;-73
2023/05/16 00:10:11;;;;;;;14.47;11.47;;;11.00;99.90;;;;;;5020899;28;20711;-73
2023/05/16 00:12:38;;;;;;;11.60;10.40;;;11.00;99.90;;;;;;5013612;28;20472;-74
2023/05/16 00:15:07;;;;;;;13.70;11.00;;;11.00;99.90;;;;;;5013319;28;20734;-74
2023/05/16 00:17:34;;;;;;;13.70;12.10;;;11.10;99.90;;;;;;5013481;28;20428;-73
2023/05/16 00:20:07;;;;;;;15.77;12.00;;;11.10;99.90;;;;;;5013290;28;20828;-73
2023/05/16 00:22:33;;;;;;;12.83;11.53;;;11.10;99.90;;;;;;5013400;28;20469;-74
2023/05/16 00:24:58;;;;;;;18.30;12.37;;;11.10;99.90;;;;;;5016188;28;20502;-74
2023/05/16 00:27:24;;;;;;;17.60;14.40;;;11.10;99.90;;;;;;5026926;28;20233;-73
2023/05/16 00:29:49;;;;;;;16.30;14.60;;;11.10;99.90;;;;;;5013145;28;20711;-74
2023/05/16 00:32:16;;;;;;;23.00;17.20;;;11.30;99.90;;;;;;5018218;28;20218;-74
2023/05/16 00:34:42;;;;;;;21.87;17.63;;;11.30;99.90;;;;;;5015621;28;20308;-73
2023/05/16 00:37:07;;;;;;;21.93;18.90;;;11.40;99.90;;;;;;5013095;28;20469;-73
2023/05/16 00:39:33;;;;;;;31.00;18.40;;;11.40;99.90;;;;;;5020238;28;20896;-74
2023/05/16 00:41:58;;;;;;;21.37;18.50;;;11.40;99.90;;;;;;5011601;28;20213;-74
2023/05/16 00:44:24;;;;;;;26.77;20.20;;;11.50;99.90;;;;;;5012756;28;20183;-74
2023/05/16 00:46:49;;;;;;;27.40;19.90;;;11.50;99.90;;;;;;5012976;28;20195;-74
2023/05/16 00:49:15;;;;;;;25.23;19.47;;;11.50;99.90;;;;;;5012617;28;20178;-74
2023/05/16 00:51:41;;;;;;;24.30;20.57;;;11.50;99.90;;;;;;5012572;28;20246;-72
2023/05/16 00:54:06;;;;;;;25.37;20.47;;;11.50;99.90;;;;;;5016321;28;20216;-73
2023/05/16 00:56:32;;;;;;;29.77;20.90;;;11.40;99.90;;;;;;5017295;28;20433;-74
2023/05/16 00:58:58;;;;;;;31.40;22.80;;;11.40;99.90;;;;;;5010019;28;20540;-74
2023/05/16 02:32:01;;;;;;;43.90;30.30;;;10.90;99.90;;;;;;5353066;23;20503;-74
2023/05/16 02:34:27;;;;;;;47.47;31.13;;;10.90;99.90;;;;;;5025157;28;20440;-71
2023/05/16 02:36:54;;;;;;;49.57;33.60;;;10.90;99.90;;;;;;5022571;28;20663;-70
2023/05/16 02:39:19;;;;;;;55.67;33.50;;;10.90;99.90;;;;;;5025960;28;20449;-72
2023/05/16 02:41:45;;;;;;;51.30;30.53;;;10.90;99.90;;;;;;5018789;28;20209;-72
2023/05/16 02:44:10;;;;;;;51.20;32.87;;;10.90;99.90;;;;;;5010775;28;20268;-72
2023/05/16 02:46:36;;;;;;;53.40;33.70;;;10.80;99.90;;;;;;5011438;28;20754;-72
2023/05/16 02:49:02;;;;;;;49.30;32.43;;;10.80;99.90;;;;;;5010484;28;20210;-72
2023/05/16 02:51:28;;;;;;;51.07;33.50;;;10.80;99.90;;;;;;5010937;28;20210;-71
2023/05/16 02:53:55;;;;;;;65.77;34.40;;;10.80;99.90;;;;;;5010649;28;20438;-71
2023/05/16 02:56:21;;;;;;;62.93;38.17;;;10.80;99.90;;;;;;5010938;28;20206;-72
2023/05/16 02:58:48;;;;;;;53.90;34.87;;;10.80;99.90;;;;;;5018737;28;20436;-72
2023/05/16 03:01:15;;;;;;;55.83;35.40;;;10.80;99.90;;;;;;4984990;28;20272;-72
2023/05/16 03:03:41;;;;;;;48.40;32.47;;;10.80;99.90;;;;;;5010736;28;21047;-72
2023/05/16 03:06:06;;;;;;;55.40;32.27;;;10.80;99.90;;;;;;5010663;28;20433;-72
2023/05/16 03:08:33;;;;;;;60.37;34.97;;;10.80;99.90;;;;;;5017477;28;20528;-72
2023/05/16 03:10:59;;;;;;;57.90;34.70;;;10.80;99.90;;;;;;4993164;28;20228;-72
2023/05/16 03:13:25;;;;;;;53.07;33.13;;;10.80;99.90;;;;;;5009460;28;20445;-72
2023/05/16 03:15:50;;;;;;;63.63;35.50;;;10.80;99.90;;;;;;5010533;28;20202;-71
2023/05/16 03:18:16;;;;;;;61.33;33.77;;;10.80;99.90;;;;;;5010185;28;20194;-72
2023/05/16 03:20:41;;;;;;;58.70;33.70;;;10.80;99.90;;;;;;5010767;28;20210;-73
2023/05/16 03:23:07;;;;;;;60.87;35.30;;;10.80;99.90;;;;;;5010075;28;20206;-72
2023/05/16 03:25:36;;;;;;;59.60;35.73;;;10.70;99.90;;;;;;5010719;28;20186;-72
2023/05/16 03:28:02;;;;;;;59.90;36.60;;;10.70;99.90;;;;;;5010179;28;20198;-72
2023/05/16 03:30:28;;;;;;;62.40;37.80;;;10.80;99.90;;;;;;5010324;28;20444;-72
2023/05/16 03:32:54;;;;;;;62.03;39.50;;;10.70;99.90;;;;;;5010489;28;20445;-72
2023/05/16 03:35:19;;;;;;;68.70;39.57;;;10.70;99.90;;;;;;5014336;28;20209;-72
2023/05/16 03:37:45;;;;;;;67.93;39.40;;;10.80;99.90;;;;;;5013704;28;20980;-72
2023/05/16 03:40:11;;;;;;;70.50;38.33;;;10.80;99.90;;;;;;5014514;28;20702;-72
2023/05/16 03:42:37;;;;;;;65.83;39.37;;;10.80;99.90;;;;;;5014102;28;20695;-71
2023/05/16 03:45:05;;;;;;;74.53;39.90;;;10.80;99.90;;;;;;5023591;28;20428;-72
2023/05/16 03:47:31;;;;;;;72.97;42.07;;;10.80;99.90;;;;;;5018800;28;20182;-72
2023/05/16 03:49:56;;;;;;;78.23;41.47;;;10.80;99.90;;;;;;5013652;28;20438;-72
2023/05/16 03:52:22;;;;;;;74.60;42.77;;;10.80;99.90;;;;;;5014024;28;20691;-72
2023/05/16 03:54:48;;;;;;;79.30;43.50;;;10.90;99.90;;;;;;5013518;28;20721;-71
2023/05/16 03:57:13;;;;;;;81.80;44.87;;;10.90;99.90;;;;;;5013582;28;20178;-71
2023/05/16 03:59:39;;;;;;;82.83;44.13;;;10.90;99.90;;;;;;5013430;28;20214;-71
2023/05/16 04:02:06;;;;;;;85.37;44.17;;;10.90;99.90;;;;;;5013395;28;20214;-71
2023/05/16 04:04:32;;;;;;;84.00;44.17;;;11.00;99.90;;;;;;5012846;28;20200;-73
2023/05/16 04:06:57;;;;;;;81.77;44.90;;;11.00;99.90;;;;;;5013394;28;20429;-71
2023/05/16 04:09:23;;;;;;;77.53;42.87;;;11.10;99.90;;;;;;5013343;28;20269;-73
2023/05/16 04:11:48;;;;;;;86.47;43.50;;;11.10;99.90;;;;;;5013517;28;20705;-72
2023/05/16 04:14:14;;;;;;;79.43;44.40;;;11.10;99.90;;;;;;5012844;28;20637;-72
2023/05/16 04:16:40;;;;;;;75.23;41.83;;;11.20;99.90;;;;;;5013307;28;20198;-71
2023/05/16 04:19:06;;;;;;;82.03;46.50;;;11.20;99.90;;;;;;5012820;28;20430;-72
2023/05/16 04:21:32;;;;;;;81.13;42.97;;;11.20;99.90;;;;;;5013176;28;20237;-72
2023/05/16 04:24:01;;;;;;;75.80;41.90;;;11.30;99.90;;;;;;5012463;28;20190;-71
2023/05/16 04:26:26;;;;;;;81.27;42.10;;;11.30;99.90;;;;;;5013278;28;20183;-72
2023/05/16 04:28:52;;;;;;;81.47;43.03;;;11.40;99.90;;;;;;5012736;28;20429;-74
2023/05/16 04:31:18;;;;;;;86.83;41.83;;;11.40;99.90;;;;;;5012706;28;20214;-74
2023/05/16 04:33:43;;;;;;;71.77;39.17;;;11.40;99.90;;;;;;5013012;28;20198;-74
2023/05/16 04:36:09;;;;;;;78.13;40.00;;;11.50;99.90;;;;;;5013063;28;20220;-74
2023/05/16 04:38:34;;;;;;;73.90;42.97;;;11.60;99.90;;;;;;5012591;28;20223;-73
2023/05/16 04:41:01;;;;;;;73.80;40.90;;;11.60;99.90;;;;;;4994865;28;20682;-74
2023/05/16 04:43:27;;;;;;;75.67;41.60;;;11.60;99.90;;;;;;5012720;28;20206;-74
2023/05/16 04:45:52;;;;;;;73.40;40.53;;;11.70;99.90;;;;;;5012170;28;20874;-74
2023/05/16 04:48:18;;;;;;;73.67;41.20;;;11.70;99.90;;;;;;5012319;28;20245;-73
2023/05/16 04:50:44;;;;;;;77.10;43.67;;;11.70;99.90;;;;;;5012634;28;20354;-74
2023/05/16 04:53:09;;;;;;;80.43;43.37;;;11.70;99.90;;;;;;5012446;28;20190;-73
2023/05/16 04:55:35;;;;;;;75.47;42.07;;;11.70;99.90;;;;;;5012549;28;20281;-74
2023/05/16 04:58:01;;;;;;;78.17;42.43;;;11.70;99.90;;;;;;5012212;28;20262;-72
2023/05/16 05:00:27;;;;;;;84.53;45.03;;;11.80;99.90;;;;;;5011757;28;20224;-72
2023/05/16 05:02:52;;;;;;;70.30;41.03;;;11.80;99.90;;;;;;5011426;28;20233;-72
2023/05/16 05:05:18;;;;;;;70.83;40.93;;;11.90;99.90;;;;;;5013737;28;20655;-72
2023/05/16 05:07:43;;;;;;;72.90;41.47;;;11.80;99.90;;;;;;5012077;28;20183;-72
2023/05/16 05:10:10;;;;;;;75.13;42.23;;;11.90;99.90;;;;;;5011965;28;20191;-73
2023/05/16 05:12:36;;;;;;;73.43;41.33;;;11.90;99.90;;;;;;5009176;28;20305;-73
2023/05/16 05:15:02;;;;;;;74.13;41.00;;;11.90;99.90;;;;;;5012035;28;21182;-73
2023/05/16 05:17:28;;;;;;;71.67;40.80;;;11.90;99.90;;;;;;5011861;28;20508;-73
2023/05/16 05:19:54;;;;;;;66.60;39.43;;;12.00;99.90;;;;;;4994639;28;20774;-72
2023/05/16 05:22:19;;;;;;;64.77;37.57;;;12.00;99.90;;;;;;5011701;28;20522;-73
2023/05/16 05:24:45;;;;;;;67.53;38.10;;;12.00;99.90;;;;;;5011474;28;20194;-73
2023/05/16 05:27:13;;;;;;;72.10;43.43;;;12.00;99.90;;;;;;5007766;28;20266;-73
2023/05/16 05:29:39;;;;;;;68.17;39.53;;;12.00;99.90;;;;;;5003902;28;20191;-73
2023/05/16 05:32:05;;;;;;;67.30;39.40;;;12.00;99.90;;;;;;5017674;28;20866;-72
2023/05/16 05:34:34;;;;;;;68.37;40.10;;;12.00;99.90;;;;;;5026701;28;20433;-72
2023/05/16 05:36:59;;;;;;;69.37;42.90;;;12.00;99.90;;;;;;5010562;28;20266;-72
2023/05/16 05:39:25;;;;;;;72.30;40.77;;;12.10;99.90;;;;;;5011508;28;21053;-71
2023/05/16 05:41:53;;;;;;;71.40;40.47;;;12.10;99.90;;;;;;5010721;28;20206;-72
2023/05/16 05:44:19;;;;;;;68.90;38.70;;;12.10;99.90;;;;;;5011589;28;20236;-72
2023/05/16 05:46:45;;;;;;;79.30;41.53;;;12.10;99.90;;;;;;5011657;28;20434;-72
2023/05/16 05:49:11;;;;;;;70.80;39.80;;;12.10;99.90;;;;;;5011265;28;20426;-72
2023/05/16 05:51:37;;;;;;;68.03;39.50;;;12.10;99.90;;;;;;5012086;28;20659;-72
2023/05/16 05:54:02;;;;;;;65.47;40.00;;;12.20;99.90;;;;;;5011737;28;20192;-72
2023/05/16 05:56:28;;;;;;;71.77;40.60;;;12.20;99.90;;;;;;5011605;28;20182;-72
2023/05/16 05:58:53;;;;;;;68.10;40.00;;;12.20;99.90;;;;;;5011508;28;20806;-72
2023/05/16 06:01:22;;;;;;;67.43;39.70;;;12.20;99.90;;;;;;5011215;28;20210;-72
2023/05/16 06:03:47;;;;;;;71.20;39.00;;;12.20;99.90;;;;;;5011371;28;20206;-72
2023/05/16 06:06:14;;;;;;;67.20;41.97;;;12.30;99.90;;;;;;5011256;28;20437;-72
2023/05/16 06:08:39;;;;;;;65.47;38.70;;;12.30;99.90;;;;;;5011115;28;20187;-72
2023/05/16 06:11:05;;;;;;;67.00;39.73;;;12.30;99.90;;;;;;5011115;28;20445;-72
2023/05/16 06:13:31;;;;;;;65.40;36.60;;;12.40;99.90;;;;;;5011646;28;20520;-72
2023/05/16 06:15:56;;;;;;;67.20;34.47;;;12.40;99.90;;;;;;5011477;28;20436;-72
2023/05/16 06:18:22;;;;;;;57.53;36.07;;;12.40;99.90;;;;;;5010876;28;20280;-72
2023/05/16 06:20:47;;;;;;;63.23;37.30;;;12.40;99.90;;;;;;5011245;28;20720;-72
2023/05/16 06:23:13;;;;;;;57.40;36.10;;;12.40;99.90;;;;;;5011123;28;20575;-72
2023/05/16 06:25:38;;;;;;;66.90;37.10;;;12.50;99.90;;;;;;5011160;28;20710;-72
2023/05/16 06:28:04;;;;;;;59.43;35.23;;;12.50;99.90;;;;;;5010939;28;20530;-71
2023/05/16 06:30:29;;;;;;;53.97;33.80;;;12.60;99.90;;;;;;5022878;28;20178;-73
2023/05/16 06:32:55;;;;;;;60.43;33.73;;;12.70;99.90;;;;;;5023677;28;20202;-72
2023/05/16 06:35:20;;;;;;;69.27;35.60;;;12.70;99.90;;;;;;5010995;28;20217;-72
2023/05/16 06:37:46;;;;;;;54.40;33.00;;;12.70;99.90;;;;;;5011047;28;20201;-72
2023/05/16 06:40:12;;;;;;;56.00;33.03;;;12.70;99.90;;;;;;5010830;28;20209;-72
2023/05/16 06:42:37;;;;;;;56.27;34.33;;;12.80;99.90;;;;;;5019112;28;20238;-72
2023/05/16 06:45:05;;;;;;;51.17;32.13;;;12.70;99.90;;;;;;5027147;28;20208;-70
2023/05/16 06:47:30;;;;;;;54.97;33.73;;;12.70;99.90;;;;;;5010707;28;20214;-72
2023/05/16 06:49:56;;;;;;;55.13;33.90;;;12.70;99.90;;;;;;5011018;28;20560;-72
2023/05/16 06:52:21;;;;;;;51.90;31.73;;;12.60;99.90;;;;;;5010815;28;20218;-72
2023/05/16 06:54:47;;;;;;;48.53;33.30;;;12.70;99.90;;;;;;5010975;28;20226;-71
2023/05/16 06:57:12;;;;;;;46.30;30.53;;;12.80;99.90;;;;;;5010789;28;20653;-73
2023/05/16 06:59:38;;;;;;;42.70;28.77;;;12.80;99.90;;;;;;5010863;28;20201;-72
2023/05/16 07:02:04;;;;;;;45.20;29.50;;;12.70;99.90;;;;;;5010635;28;20217;-71
2023/05/16 07:04:30;;;;;;;44.57;28.63;;;12.70;99.90;;;;;;5010884;28;20452;-72
2023/05/16 07:06:55;;;;;;;40.30;27.40;;;12.60;99.90;;;;;;5010831;28;20413;-72
2023/05/16 07:09:21;;;;;;;40.97;27.20;;;12.60;99.90;;;;;;5012472;28;20201;-72
2023/05/16 07:11:46;;;;;;;42.53;26.57;;;12.60;99.90;;;;;;5014547;28;20238;-72
2023/05/16 07:14:12;;;;;;;39.57;24.43;;;12.70;99.90;;;;;;5014543;28;20195;-72
2023/05/16 07:16:37;;;;;;;33.77;23.10;;;12.70;99.90;;;;;;5014647;28;20965;-73
2023/05/16 07:19:03;;;;;;;28.03;20.40;;;12.60;99.90;;;;;;5014401;28;20186;-71
2023/05/16 07:21:28;;;;;;;28.77;20.30;;;12.60;99.90;;;;;;5014324;28;20709;-72
2023/05/16 07:23:54;;;;;;;27.87;18.30;;;12.70;99.90;;;;;;5014488;28;20559;-72
2023/05/16 07:26:22;;;;;;;31.40;18.10;;;12.70;99.90;;;;;;5014156;28;20588;-72
2023/05/16 07:28:48;;;;;;;20.97;16.90;;;12.70;99.90;;;;;;5014098;28;20285;-72
2023/05/16 07:31:15;;;;;;;22.87;16.00;;;12.60;99.90;;;;;;5013944;28;20966;-72
2023/05/16 07:33:41;;;;;;;19.57;15.80;;;12.60;99.90;;;;;;5014193;28;20433;-72
2023/05/16 07:36:06;;;;;;;20.43;14.30;;;12.60;99.90;;;;;;5014093;28;20476;-70
2023/05/16 07:38:32;;;;;;;17.60;13.87;;;12.70;99.90;;;;;;5013761;28;20264;-72
2023/05/16 07:40:58;;;;;;;16.93;15.20;;;12.90;99.90;;;;;;5014087;28;20207;-73
2023/05/16 07:43:23;;;;;;;19.20;14.30;;;13.10;99.90;;;;;;5013699;28;20606;-72
2023/05/16 07:45:49;;;;;;;17.00;13.43;;;13.10;99.90;;;;;;5014037;28;20197;-71
2023/05/16 07:48:15;;;;;;;16.43;12.63;;;13.20;99.90;;;;;;5013665;28;20183;-71
2023/05/16 07:50:41;;;;;;;15.97;13.47;;;13.20;99.90;;;;;;5013701;28;20525;-72
2023/05/16 07:53:07;;;;;;;16.30;13.20;;;13.10;99.90;;;;;;5013687;28;20187;-69
2023/05/16 07:55:32;;;;;;;15.83;12.90;;;13.00;99.90;;;;;;5013745;28;20487;-72
2023/05/16 07:57:58;;;;;;;15.10;13.07;;;13.00;99.90;;;;;;5013645;28;20193;-72
2023/05/16 08:00:23;;;;;;;15.63;12.80;;;13.10;99.90;;;;;;5013307;28;20237;-71
2023/05/16 08:02:49;;;;;;;17.70;13.77;;;13.10;99.90;;;;;;5011860;28;20216;-72
2023/05/16 08:05:15;;;;;;;17.73;12.30;;;13.20;99.90;;;;;;5013572;28;20179;-71
2023/05/16 08:07:40;;;;;;;14.60;13.10;;;13.20;99.90;;;;;;5013323;28;20433;-72
2023/05/16 08:10:07;;;;;;;14.47;12.80;;;13.20;99.90;;;;;;4996173;28;20183;-72
2023/05/16 08:12:32;;;;;;;20.23;14.00;;;13.10;99.90;;;;;;5013409;28;20212;-72
2023/05/16 08:14:58;;;;;;;17.40;14.47;;;13.00;99.90;;;;;;5013446;28;20796;-71
2023/05/16 08:17:23;;;;;;;16.73;14.17;;;13.00;99.90;;;;;;5012983;28;20595;-72
2023/05/16 08:19:48;;;;;;;18.03;14.70;;;13.00;99.90;;;;;;5012584;28;20182;-72
2023/05/16 08:22:14;;;;;;;18.90;15.27;;;13.00;99.90;;;;;;5012763;28;20203;-72
2023/05/16 08:24:40;;;;;;;21.93;16.70;;;13.00;99.90;;;;;;5013206;28;20233;-72
2023/05/16 08:27:05;;;;;;;16.00;14.10;;;12.90;99.90;;;;;;5013200;28;20725;-70
2023/05/16 08:29:33;;;;;;;18.40;15.50;;;12.90;99.90;;;;;;5012843;28;20183;-72
2023/05/16 08:31:59;;;;;;;19.83;15.50;;;12.80;99.90;;;;;;5013113;28;20229;-72
2023/05/16 08:34:25;;;;;;;17.20;15.00;;;12.80;99.90;;;;;;5012894;28;20864;-72
2023/05/16 08:36:53;;;;;;;20.37;14.70;;;12.70;99.90;;;;;;5013158;28;20191;-73
2023/05/16 08:39:19;;;;;;;19.43;15.40;;;12.70;99.90;;;;;;5012596;28;20191;-72
2023/05/16 08:41:45;;;;;;;20.87;16.10;;;12.70;99.90;;;;;;5012725;28;20460;-72
2023/05/16 08:44:20;;;;;;;22.70;16.30;;;12.70;99.90;;;;;;5012798;28;20754;-71
2023/05/16 08:46:50;;;;;;;19.03;15.27;;;12.70;99.90;;;;;;5000352;28;20673;-73
2023/05/16 08:49:17;;;;;;;23.70;17.20;;;12.70;99.90;;;;;;5015140;28;20507;-72
2023/05/16 08:51:42;;;;;;;24.87;17.47;;;12.70;99.90;;;;;;5013033;28;20860;-72
2023/05/16 08:54:12;;;;;;;24.23;17.90;;;12.70;99.90;;;;;;5012904;28;20463;-72
2023/05/16 08:56:38;;;;;;;22.60;18.30;;;12.70;99.90;;;;;;5005205;28;20182;-72
2023/05/16 08:59:03;;;;;;;24.53;17.30;;;12.70;99.90;;;;;;5012665;28;20475;-72
2023/05/16 09:01:31;;;;;;;25.73;17.70;;;12.80;99.90;;;;;;5012304;28;20927;-72
2023/05/16 09:03:57;;;;;;;22.60;18.90;;;12.70;99.90;;;;;;5012567;28;20217;-72
2023/05/16 09:06:23;;;;;;;22.03;17.43;;;12.70;99.90;;;;;;5012316;28;20915;-72
2023/05/16 09:08:49;;;;;;;25.70;20.77;;;12.70;99.90;;;;;;5012161;28;20430;-72
2023/05/16 09:11:15;;;;;;;24.13;18.20;;;12.80;99.90;;;;;;5012295;28;20961;-72
2023/05/16 09:13:41;;;;;;;25.60;20.13;;;12.80;99.90;;;;;;5012316;28;20190;-72
2023/05/16 09:16:15;;;;;;;37.60;23.23;;;12.80;99.90;;;;;;5012428;28;20441;-71
2023/05/16 09:18:43;;;;;;;31.70;21.20;;;12.80;99.90;;;;;;5012600;28;20198;-72
2023/05/16 09:21:10;;;;;;;32.90;22.57;;;13.00;99.90;;;;;;5011937;28;20445;-71
2023/05/16 09:23:36;;;;;;;32.60;22.10;;;13.20;99.90;;;;;;5011656;28;20977;-72
2023/05/16 09:26:04;;;;;;;30.80;20.97;;;13.30;99.90;;;;;;5012071;28;20435;-72
2023/05/16 09:28:30;;;;;;;40.50;23.17;;;13.40;99.90;;;;;;5011539;28;20461;-72
2023/05/16 09:30:58;;;;;;;32.37;22.70;;;13.60;99.90;;;;;;5011596;28;20449;-72
2023/05/16 09:33:26;;;;;;;27.40;21.17;;;13.70;99.90;;;;;;5011495;28;20438;-72
2023/05/16 09:35:59;;;;;;;33.03;20.80;;;13.80;99.90;;;;;;5011733;28;20444;-72
2023/05/16 09:38:26;;;;;;;32.43;21.70;;;13.70;99.90;;;;;;5011520;28;20934;-72
2023/05/16 09:40:53;;;;;;;31.63;22.30;;;13.60;99.90;;;;;;5011673;28;20458;-72
2023/05/16 09:43:25;;;;;;;27.73;20.30;;;13.50;99.90;;;;;;5011486;28;20579;-72
2023/05/16 09:45:52;;;;;;;30.80;19.73;;;13.50;99.90;;;;;;5011770;28;20448;-72
2023/05/16 09:48:19;;;;;;;35.20;22.57;;;13.50;99.90;;;;;;5011196;28;20429;-72
2023/05/16 09:50:51;;;;;;;28.10;20.37;;;13.60;99.90;;;;;;5011339;28;20939;-72
2023/05/16 09:53:17;;;;;;;27.87;20.83;;;13.70;99.90;;;;;;5011402;28;20563;-72
2023/05/16 09:55:43;;;;;;;30.53;20.90;;;14.00;99.90;;;;;;5011335;28;20579;-72
2023/05/16 09:58:08;;;;;;;27.03;19.03;;;14.10;99.90;;;;;;5011348;28;20516;-72
2023/05/16 10:00:34;;;;;;;28.40;21.10;;;14.30;99.90;;;;;;5019358;28;20217;-72
2023/05/16 10:03:02;;;;;;;30.23;20.20;;;14.60;99.90;;;;;;5011401;28;20218;-72
2023/05/16 10:05:28;;;;;;;27.63;20.53;;;14.80;99.90;;;;;;5011150;28;20491;-72
2023/05/16 10:07:55;;;;;;;23.80;16.93;;;14.80;99.90;;;;;;5011240;28;21014;-72
2023/05/16 10:10:21;;;;;;;25.77;17.10;;;14.70;99.90;;;;;;5011581;28;20483;-72
2023/05/16 10:12:48;;;;;;;22.40;16.23;;;14.80;99.90;;;;;;5011334;28;20434;-72
2023/05/16 10:15:16;;;;;;;23.70;16.00;;;14.80;99.90;;;;;;5011389;28;20433;-72
2023/05/16 10:17:44;;;;;;;21.53;15.57;;;14.80;99.90;;;;;;5003012;28;20437;-72
2023/05/16 10:20:11;;;;;;;25.33;17.00;;;14.70;99.90;;;;;;5011222;28;20429;-72
2023/05/16 10:22:43;;;;;;;26.60;17.07;;;14.70;99.90;;;;;;5010779;28;20469;-72
2023/05/16 10:25:35;;;;;;;23.73;17.77;;;14.80;99.90;;;;;;5011034;28;20505;-72
2023/05/16 10:28:01;;;;;;;24.00;17.70;;;14.80;99.90;;;;;;5005689;28;20520;-72
2023/05/16 10:30:30;;;;;;;20.50;15.87;;;15.10;99.90;;;;;;5010857;28;20429;-72
2023/05/16 10:32:56;;;;;;;27.80;17.37;;;15.20;99.90;;;;;;5019361;28;20849;-72
2023/05/16 10:35:22;;;;;;;26.90;17.77;;;15.10;99.90;;;;;;5010919;28;20437;-72
2023/05/16 10:37:51;;;;;;;26.57;17.13;;;14.70;99.90;;;;;;5010584;28;20810;-72
2023/05/16 10:40:17;;;;;;;31.43;18.40;;;14.50;99.90;;;;;;5010944;28;20429;-71
2023/05/16 10:43:00;;;;;;;21.50;15.83;;;14.30;99.90;;;;;;5010801;28;20569;-72
2023/05/16 10:45:25;;;;;;;29.93;17.83;;;14.20;99.90;;;;;;5014996;28;20433;-72
2023/05/16 10:48:03;;;;;;;27.93;16.57;;;14.10;99.90;;;;;;5014829;28;20846;-73
2023/05/16 10:50:34;;;;;;;26.27;17.93;;;13.90;99.90;;;;;;5014873;28;20218;-72
2023/05/16 10:53:18;;;;;;;22.87;16.80;;;13.50;99.90;;;;;;5015080;28;20429;-72
2023/05/16 10:55:49;;;;;;;28.97;16.70;;;13.30;99.90;;;;;;5014841;28;20847;-72
2023/05/16 10:58:39;;;;;;;24.90;17.30;;;13.30;99.90;;;;;;5014909;28;20981;-72
2023/05/16 11:01:20;;;;;;;24.53;15.53;;;13.10;99.90;;;;;;5009981;28;20445;-72
2023/05/16 11:03:57;;;;;;;33.03;17.70;;;13.10;99.90;;;;;;5015381;28;20503;-72
2023/05/16 11:06:31;;;;;;;28.20;16.10;;;13.00;99.90;;;;;;5014794;28;20426;-72
2023/05/16 11:09:05;;;;;;;26.17;17.20;;;12.90;99.90;;;;;;5014981;28;20432;-72
2023/05/16 11:11:40;;;;;;;22.90;16.07;;;12.90;99.90;;;;;;5014849;28;20453;-72
2023/05/16 11:14:06;;;;;;;26.33;15.30;;;12.90;99.90;;;;;;5014949;28;20500;-72
2023/05/16 11:16:33;;;;;;;19.50;14.23;;;12.90;99.90;;;;;;5014399;28;20468;-72
2023/05/16 11:19:07;;;;;;;19.50;13.00;;;12.70;99.90;;;;;;5014592;28;20487;-72
2023/05/16 11:22:03;;;;;;;19.40;13.40;;;12.70;99.90;;;;;;5014156;28;20453;-72
2023/05/16 11:24:38;;;;;;;15.67;10.90;;;12.50;99.90;;;;;;5014055;28;20433;-73
2023/05/16 11:27:05;;;;;;;16.20;10.47;;;12.60;99.90;;;;;;5014337;28;20420;-72
2023/05/16 11:29:35;;;;;;;10.83;9.07;;;12.60;99.90;;;;;;5014171;28;20512;-72
2023/05/16 11:32:03;;;;;;;13.67;9.97;;;12.60;99.90;;;;;;5014004;28;20500;-72
2023/05/16 11:34:30;;;;;;;13.10;9.10;;;12.50;99.90;;;;;;4996286;28;20516;-72
2023/05/16 11:36:55;;;;;;;10.13;8.50;;;12.50;99.90;;;;;;5012127;28;20433;-72
2023/05/16 11:39:25;;;;;;;9.07;7.20;;;12.60;99.90;;;;;;5012519;28;20448;-72
2023/05/16 11:41:52;;;;;;;8.90;7.17;;;12.60;99.90;;;;;;5013398;28;20213;-72
2023/05/16 11:44:17;;;;;;;9.23;7.60;;;12.60;99.90;;;;;;5013806;28;20513;-72
2023/05/16 11:46:43;;;;;;;10.07;7.67;;;12.50;99.90;;;;;;5013675;28;20508;-71
2023/05/16 11:49:09;;;;;;;8.60;7.40;;;12.50;99.90;;;;;;5014128;28;20205;-72
2023/05/16 11:51:37;;;;;;;8.60;7.43;;;12.60;99.90;;;;;;5013665;28;20214;-72
2023/05/16 11:54:06;;;;;;;10.87;7.90;;;12.60;99.90;;;;;;5013821;28;20277;-72
2023/05/16 11:56:36;;;;;;;10.03;8.10;;;12.60;99.90;;;;;;5013866;28;20440;-72
2023/05/16 11:59:02;;;;;;;8.47;7.13;;;12.60;99.90;;;;;;5013653;28;20426;-71
2023/05/16 12:01:38;;;;;;;9.10;6.83;;;12.60;99.90;;;;;;5014535;28;20472;-72
2023/05/16 12:04:14;;;;;;;10.13;7.30;;;12.70;99.90;;;;;;5027779;28;20471;-72
2023/05/16 12:06:43;;;;;;;9.30;7.97;;;12.60;99.90;;;;;;5021678;28;20440;-72
2023/05/16 12:09:13;;;;;;;8.03;7.03;;;12.70;99.90;;;;;;5019892;28;20482;-72
2023/05/16 12:11:41;;;;;;;9.03;7.60;;;12.70;99.90;;;;;;5014317;28;20481;-72
2023/05/16 12:14:08;;;;;;;11.97;7.90;;;12.80;99.90;;;;;;5013703;28;20434;-72
2023/05/16 12:16:38;;;;;;;13.00;8.30;;;12.80;99.90;;;;;;5013382;28;20432;-72
2023/05/16 12:19:05;;;;;;;11.30;7.70;;;12.80;99.90;;;;;;5013074;28;20865;-73
2023/05/16 12:21:31;;;;;;;8.53;7.30;;;12.90;99.90;;;;;;5013013;28;20465;-73
2023/05/16 12:23:57;;;;;;;8.83;6.97;;;12.90;99.90;;;;;;5013255;28;20969;-74
2023/05/16 12:26:29;;;;;;;8.30;6.60;;;13.10;99.90;;;;;;5013154;28;20472;-71
2023/05/16 12:28:59;;;;;;;8.23;5.90;;;13.20;99.90;;;;;;5009692;28;20868;-74
2023/05/16 12:31:31;;;;;;;7.93;6.00;;;13.30;99.90;;;;;;5019511;28;20472;-73
2023/05/16 12:33:57;;;;;;;5.90;5.30;;;13.40;99.90;;;;;;5012038;28;20451;-73
2023/05/16 12:36:25;;;;;;;7.07;5.30;;;13.50;99.90;;;;;;5011602;28;21024;-73
2023/05/16 12:38:51;;;;;;;5.10;4.10;;;13.60;99.90;;;;;;5003674;28;20223;-71
2023/05/16 12:41:21;;;;;;;5.07;4.47;;;13.70;99.90;;;;;;5011666;28;20477;-72
2023/05/16 12:43:50;;;;;;;5.57;4.40;;;13.70;99.90;;;;;;5009017;28;20473;-72
2023/05/16 12:46:18;;;;;;;4.60;4.23;;;13.70;99.90;;;;;;5011451;28;20465;-72
2023/05/16 12:48:46;;;;;;;6.77;5.03;;;13.70;99.90;;;;;;5011409;28;20555;-71
2023/05/16 12:51:12;;;;;;;5.47;3.80;;;13.50;99.90;;;;;;5012776;28;20543;-73
2023/05/16 12:53:48;;;;;;;4.40;4.00;;;13.50;99.90;;;;;;5012550;28;20471;-73
2023/05/16 12:56:14;;;;;;;4.97;4.63;;;13.40;99.90;;;;;;5012633;28;20429;-73
2023/05/16 12:58:41;;;;;;;4.13;3.83;;;13.30;99.90;;;;;;5012274;28;20442;-73
2023/05/16 13:01:06;;;;;;;4.30;4.00;;;13.20;99.90;;;;;;5012544;28;20459;-73
2023/05/16 13:03:33;;;;;;;5.60;4.10;;;13.30;99.90;;;;;;5012405;28;20560;-72
2023/05/16 13:05:59;;;;;;;3.73;3.37;;;13.30;99.90;;;;;;5012154;28;20195;-72
2023/05/16 13:08:26;;;;;;;6.40;3.87;;;13.30;99.90;;;;;;5012100;28;20495;-71
2023/05/16 13:10:51;;;;;;;3.87;3.57;;;13.20;99.90;;;;;;5012464;28;20786;-71
2023/05/16 13:13:20;;;;;;;4.07;3.77;;;13.10;99.90;;;;;;5013749;28;20444;-73
2023/05/16 13:15:46;;;;;;;4.10;3.80;;;13.10;99.90;;;;;;4995703;28;20194;-71
2023/05/16 13:18:12;;;;;;;4.30;3.53;;;13.10;99.90;;;;;;5012097;28;21050;-72
2023/05/16 13:20:38;;;;;;;3.03;2.77;;;13.00;99.90;;;;;;5011875;28;20445;-74
2023/05/16 13:23:04;;;;;;;3.20;2.97;;;13.10;99.90;;;;;;5012147;28;20461;-73
2023/05/16 13:25:30;;;;;;;5.13;3.40;;;13.10;99.90;;;;;;5012044;28;20213;-71
2023/05/16 13:27:55;;;;;;;3.37;3.17;;;12.90;99.90;;;;;;5011826;28;20436;-72
2023/05/16 13:30:21;;;;;;;4.80;2.93;;;12.80;99.90;;;;;;5012089;28;20460;-72
2023/05/16 13:32:47;;;;;;;2.90;2.70;;;12.80;99.90;;;;;;5011654;28;20222;-71
2023/05/16 13:35:13;;;;;;;2.90;2.70;;;12.80;99.90;;;;;;5012079;28;20218;-72
2023/05/16 13:37:40;;;;;;;5.17;2.87;;;12.80;99.90;;;;;;5011423;28;20897;-72
2023/05/16 13:40:09;;;;;;;4.07;2.60;;;12.70;99.90;;;;;;5012002;28;20182;-73
2023/05/16 13:42:38;;;;;;;2.80;2.30;;;12.70;99.90;;;;;;5011904;28;20563;-74
2023/05/16 13:45:05;;;;;;;2.30;2.20;;;12.70;99.90;;;;;;5011893;28;20800;-73
2023/05/16 13:47:34;;;;;;;3.33;3.10;;;12.70;99.90;;;;;;5011455;28;20433;-73
2023/05/16 13:50:04;;;;;;;3.03;2.73;;;12.70;99.90;;;;;;5019981;28;20440;-74
2023/05/16 13:52:33;;;;;;;3.13;2.83;;;12.80;99.90;;;;;;5011764;28;20453;-74
2023/05/16 13:54:59;;;;;;;2.33;2.20;;;12.80;99.90;;;;;;5019841;28;20784;-73
2023/05/16 13:57:26;;;;;;;1.97;1.87;;;12.80;99.90;;;;;;5011561;28;20421;-73
2023/05/16 13:59:51;;;;;;;2.10;2.00;;;12.80;99.90;;;;;;5011463;28;20179;-73